sensor_id;sensor_type;location;lat;lon;timestamp;pressure;altitude;pressure_sealevel;temperature;humidity
26823;BME280;14852;51.910;8.878;2023-06-26T00:01:26;99578.81;;;22.70;54.25
26823;BME280;14852;51.910;8.878;2023-06-26T00:03:55;99576.78;;;22.64;54.62
26823;BME280;14852;51.910;8.878;2023-06-26T00:06:21;99575.47;;;22.60;54.70
26823;BME280;14852;51.910;8.878;2023-06-26T00:08:50;99571.94;;;22.52;54.51
26823;BME280;14852;51.910;8.878;2023-06-26T00:11:16;99570.28;;;22.43;54.67
26823;BME280;14852;51.910;8.878;2023-06-26T00:13:42;99575.41;;;22.36;54.94
26823;BME280;14852;51.910;8.878;2023-06-26T00:16:07;99570.41;;;22.33;54.83
26823;BME280;14852;51.910;8.878;2023-06-26T00:18:33;99576.00;;;22.30;55.16
26823;BME280;14852;51.910;8.878;2023-06-26T00:20:59;99577.00;;;22.29;55.30
26823;BME280;14852;51.910;8.878;2023-06-26T00:23:25;99569.22;;;22.27;55.06
26823;BME280;14852;51.910;8.878;2023-06-26T00:25:50;99573.53;;;22.28;55.17
26823;BME280;14852;51.910;8.878;2023-06-26T00:28:16;99572.38;;;22.31;55.18
26823;BME280;14852;51.910;8.878;2023-06-26T00:30:42;99570.41;;;22.33;54.93
26823;BME280;14852;51.910;8.878;2023-06-26T00:33:08;99563.81;;;22.37;54.88
26823;BME280;14852;51.910;8.878;2023-06-26T00:35:33;99564.66;;;22.46;54.89
26823;BME280;14852;51.910;8.878;2023-06-26T00:38:01;99563.19;;;22.51;54.75
26823;BME280;14852;51.910;8.878;2023-06-26T00:40:28;99565.19;;;22.57;55.17
26823;BME280;14852;51.910;8.878;2023-06-26T00:42:53;99561.06;;;22.63;54.76
26823;BME280;14852;51.910;8.878;2023-06-26T00:45:20;99552.13;;;22.64;54.92
26823;BME280;14852;51.910;8.878;2023-06-26T00:47:46;99558.25;;;22.64;54.69
26823;BME280;14852;51.910;8.878;2023-06-26T00:50:13;99547.66;;;22.64;54.83
26823;BME280;14852;51.910;8.878;2023-06-26T00:52:41;99558.09;;;22.66;54.79
26823;BME280;14852;51.910;8.878;2023-06-26T00:55:07;99551.66;;;22.68;54.91
26823;BME280;14852;51.910;8.878;2023-06-26T00:57:35;99559.28;;;22.71;54.95
26823;BME280;14852;51.910;8.878;2023-06-26T01:00:02;99545.03;;;22.72;55.06
26823;BME280;14852;51.910;8.878;2023-06-26T01:02:30;99551.81;;;22.67;54.83
26823;BME280;14852;51.910;8.878;2023-06-26T01:05:00;99541.88;;;22.61;54.92
26823;BME280;14852;51.910;8.878;2023-06-26T01:07:29;99539.03;;;22.54;54.90
26823;BME280;14852;51.910;8.878;2023-06-26T01:09:55;99536.88;;;22.50;55.17
26823;BME280;14852;51.910;8.878;2023-06-26T01:12:21;99533.88;;;22.45;55.21
26823;BME280;14852;51.910;8.878;2023-06-26T01:14:48;99534.88;;;22.44;55.49
26823;BME280;14852;51.910;8.878;2023-06-26T01:17:14;99526.94;;;22.44;55.31
26823;BME280;14852;51.910;8.878;2023-06-26T01:19:41;99528.22;;;22.39;55.23
26823;BME280;14852;51.910;8.878;2023-06-26T01:25:32;99526.38;;;22.24;54.85
26823;BME280;14852;51.910;8.878;2023-06-26T01:28:05;99525.34;;;22.17;55.21
26823;BME280;14852;51.910;8.878;2023-06-26T01:30:43;99528.97;;;22.16;55.53
26823;BME280;14852;51.910;8.878;2023-06-26T01:33:11;99525.00;;;22.12;55.79
26823;BME280;14852;51.910;8.878;2023-06-26T01:35:38;99519.03;;;22.10;55.74
26823;BME280;14852;51.910;8.878;2023-06-26T01:38:16;99513.28;;;22.14;55.48
26823;BME280;14852;51.910;8.878;2023-06-26T01:40:43;99510.94;;;22.11;55.35
26823;BME280;14852;51.910;8.878;2023-06-26T01:43:29;99510.63;;;22.14;55.14
26823;BME280;14852;51.910;8.878;2023-06-26T01:46:06;99508.81;;;22.15;55.29
26823;BME280;14852;51.910;8.878;2023-06-26T01:48:50;99502.50;;;22.16;55.40
26823;BME280;14852;51.910;8.878;2023-06-26T01:51:23;99501.53;;;22.17;55.65
26823;BME280;14852;51.910;8.878;2023-06-26T01:53:54;99499.56;;;22.19;55.32
26823;BME280;14852;51.910;8.878;2023-06-26T01:56:23;99508.16;;;22.21;55.24
26823;BME280;14852;51.910;8.878;2023-06-26T01:58:51;99500.38;;;22.19;55.84
26823;BME280;14852;51.910;8.878;2023-06-26T02:01:20;99506.19;;;22.15;56.05
26823;BME280;14852;51.910;8.878;2023-06-26T02:03:47;99502.03;;;22.12;55.60
26823;BME280;14852;51.910;8.878;2023-06-26T02:06:13;99498.84;;;22.09;55.84
26823;BME280;14852;51.910;8.878;2023-06-26T02:08:39;99498.53;;;22.03;55.88
26823;BME280;14852;51.910;8.878;2023-06-26T02:11:05;99495.38;;;22.00;56.17
26823;BME280;14852;51.910;8.878;2023-06-26T02:13:32;99493.00;;;21.97;56.28
26823;BME280;14852;51.910;8.878;2023-06-26T02:15:58;99493.31;;;21.94;56.25
26823;BME280;14852;51.910;8.878;2023-06-26T02:18:23;99483.72;;;21.93;56.38
26823;BME280;14852;51.910;8.878;2023-06-26T02:20:50;99489.81;;;21.93;56.41
26823;BME280;14852;51.910;8.878;2023-06-26T02:23:15;99485.72;;;21.91;56.47
26823;BME280;14852;51.910;8.878;2023-06-26T02:25:41;99484.22;;;21.88;56.65
26823;BME280;14852;51.910;8.878;2023-06-26T02:28:09;99486.34;;;21.85;56.87
26823;BME280;14852;51.910;8.878;2023-06-26T02:30:35;99482.03;;;21.84;57.20
26823;BME280;14852;51.910;8.878;2023-06-26T02:33:01;99478.69;;;21.82;57.22
26823;BME280;14852;51.910;8.878;2023-06-26T02:35:27;99478.69;;;21.82;57.21
26823;BME280;14852;51.910;8.878;2023-06-26T02:37:52;99480.72;;;21.80;56.98
26823;BME280;14852;51.910;8.878;2023-06-26T02:40:18;99477.22;;;21.79;57.24
26823;BME280;14852;51.910;8.878;2023-06-26T02:42:44;99476.56;;;21.77;57.02
26823;BME280;14852;51.910;8.878;2023-06-26T02:45:10;99482.81;;;21.76;57.53
26823;BME280;14852;51.910;8.878;2023-06-26T02:47:36;99476.72;;;21.76;57.33
26823;BME280;14852;51.910;8.878;2023-06-26T02:50:07;99469.75;;;21.75;57.36
26823;BME280;14852;51.910;8.878;2023-06-26T02:52:52;99465.59;;;21.72;57.75
26823;BME280;14852;51.910;8.878;2023-06-26T02:55:20;99464.94;;;21.70;57.58
26823;BME280;14852;51.910;8.878;2023-06-26T02:57:47;99456.34;;;21.68;57.37
26823;BME280;14852;51.910;8.878;2023-06-26T03:00:13;99457.66;;;21.64;57.50
26823;BME280;14852;51.910;8.878;2023-06-26T03:02:45;99449.91;;;21.71;57.07
26823;BME280;14852;51.910;8.878;2023-06-26T03:05:15;99457.66;;;21.64;57.53
26823;BME280;14852;51.910;8.878;2023-06-26T03:07:42;99461.28;;;21.63;57.27
26823;BME280;14852;51.910;8.878;2023-06-26T03:10:09;99451.53;;;21.63;57.65
26823;BME280;14852;51.910;8.878;2023-06-26T03:12:35;99455.16;;;21.62;57.94
26823;BME280;14852;51.910;8.878;2023-06-26T03:15:01;99465.72;;;21.62;57.89
26823;BME280;14852;51.910;8.878;2023-06-26T03:17:26;99448.22;;;21.61;57.57
26823;BME280;14852;51.910;8.878;2023-06-26T03:19:58;99443.91;;;21.60;57.96
26823;BME280;14852;51.910;8.878;2023-06-26T03:22:30;99457.28;;;21.59;57.68
26823;BME280;14852;51.910;8.878;2023-06-26T03:24:56;99450.19;;;21.59;57.70
26823;BME280;14852;51.910;8.878;2023-06-26T03:27:21;99453.66;;;21.60;57.88
26823;BME280;14852;51.910;8.878;2023-06-26T03:29:49;99448.84;;;21.55;58.16
26823;BME280;14852;51.910;8.878;2023-06-26T03:32:15;99449.00;;;21.54;58.37
26823;BME280;14852;51.910;8.878;2023-06-26T03:34:41;99456.78;;;21.55;57.84
26823;BME280;14852;51.910;8.878;2023-06-26T03:37:07;99456.78;;;21.55;58.07
26823;BME280;14852;51.910;8.878;2023-06-26T03:39:33;99451.66;;;21.54;57.80
26823;BME280;14852;51.910;8.878;2023-06-26T03:41:59;99449.84;;;21.54;58.30
26823;BME280;14852;51.910;8.878;2023-06-26T03:44:27;99451.66;;;21.54;58.34
26823;BME280;14852;51.910;8.878;2023-06-26T03:46:53;99452.63;;;21.53;57.86
26823;BME280;14852;51.910;8.878;2023-06-26T03:49:19;99452.63;;;21.53;58.12
26823;BME280;14852;51.910;8.878;2023-06-26T03:51:46;99446.38;;;21.54;58.06
26823;BME280;14852;51.910;8.878;2023-06-26T03:54:11;99440.91;;;21.55;58.23
26823;BME280;14852;51.910;8.878;2023-06-26T03:56:37;99439.09;;;21.56;58.45
26823;BME280;14852;51.910;8.878;2023-06-26T03:59:05;99442.41;;;21.58;58.22
26823;BME280;14852;51.910;8.878;2023-06-26T04:01:31;99433.31;;;21.60;57.95
26823;BME280;14852;51.910;8.878;2023-06-26T04:03:57;99435.34;;;21.66;58.06
26823;BME280;14852;51.910;8.878;2023-06-26T04:06:23;99436.19;;;21.67;58.34
26823;BME280;14852;51.910;8.878;2023-06-26T04:08:48;99438.69;;;21.68;57.83
26823;BME280;14852;51.910;8.878;2023-06-26T04:11:15;99436.06;;;21.77;57.90
26823;BME280;14852;51.910;8.878;2023-06-26T04:13:41;99440.00;;;21.81;58.12
26823;BME280;14852;51.910;8.878;2023-06-26T04:16:06;99436.44;;;21.90;57.89
26823;BME280;14852;51.910;8.878;2023-06-26T04:18:32;99433.13;;;21.96;57.59
26823;BME280;14852;51.910;8.878;2023-06-26T04:21:12;99434.22;;;22.11;57.42
26823;BME280;14852;51.910;8.878;2023-06-26T04:23:40;99434.38;;;22.18;57.51
26823;BME280;14852;51.910;8.878;2023-06-26T04:26:06;99434.91;;;22.29;57.64
26823;BME280;14852;51.910;8.878;2023-06-26T04:28:34;99426.66;;;22.40;57.12
26823;BME280;14852;51.910;8.878;2023-06-26T04:31:03;99431.47;;;22.53;57.14
26823;BME280;14852;51.910;8.878;2023-06-26T04:33:29;99429.81;;;22.68;57.20
26823;BME280;14852;51.910;8.878;2023-06-26T04:35:55;99426.19;;;22.86;56.47
26823;BME280;14852;51.910;8.878;2023-06-26T04:38:20;99424.69;;;23.16;56.37
26823;BME280;14852;51.910;8.878;2023-06-26T04:40:48;99420.09;;;23.65;54.99
26823;BME280;14852;51.910;8.878;2023-06-26T04:43:14;99413.63;;;24.75;52.92
26823;BME280;14852;51.910;8.878;2023-06-26T04:45:40;99410.81;;;25.73;50.71
26823;BME280;14852;51.910;8.878;2023-06-26T04:48:05;99416.28;;;26.22;49.50
26823;BME280;14852;51.910;8.878;2023-06-26T04:50:31;99408.34;;;26.64;49.08
26823;BME280;14852;51.910;8.878;2023-06-26T04:52:59;99406.06;;;26.40;49.68
26823;BME280;14852;51.910;8.878;2023-06-26T04:55:25;99406.50;;;26.08;50.56
26823;BME280;14852;51.910;8.878;2023-06-26T04:57:51;99414.06;;;25.89;49.97
26823;BME280;14852;51.910;8.878;2023-06-26T05:00:17;99410.53;;;25.82;50.12
26823;BME280;14852;51.910;8.878;2023-06-26T05:02:43;99403.78;;;25.86;50.12
26823;BME280;14852;51.910;8.878;2023-06-26T05:05:09;99400.38;;;26.07;49.85
26823;BME280;14852;51.910;8.878;2023-06-26T05:07:36;99402.22;;;27.20;47.05
26823;BME280;14852;51.910;8.878;2023-06-26T05:10:02;99387.53;;;28.85;43.18
26823;BME280;14852;51.910;8.878;2023-06-26T05:12:28;99383.72;;;30.35;39.79
26823;BME280;14852;51.910;8.878;2023-06-26T05:14:54;99386.50;;;31.64;37.45
26823;BME280;14852;51.910;8.878;2023-06-26T05:17:19;99383.56;;;32.55;35.90
26823;BME280;14852;51.910;8.878;2023-06-26T05:19:46;99385.63;;;33.41;34.57
26823;BME280;14852;51.910;8.878;2023-06-26T05:22:13;99376.44;;;34.23;33.64
26823;BME280;14852;51.910;8.878;2023-06-26T05:24:40;99379.63;;;34.81;32.36
26823;BME280;14852;51.910;8.878;2023-06-26T05:27:06;99379.06;;;35.18;32.38
26823;BME280;14852;51.910;8.878;2023-06-26T05:29:33;99373.25;;;35.70;31.32
26823;BME280;14852;51.910;8.878;2023-06-26T05:31:59;99374.00;;;36.14;30.59
26823;BME280;14852;51.910;8.878;2023-06-26T05:34:26;99377.31;;;36.48;30.18
26823;BME280;14852;51.910;8.878;2023-06-26T05:37:00;99368.13;;;36.49;30.27
26823;BME280;14852;51.910;8.878;2023-06-26T05:39:27;99372.03;;;37.00;29.71
26823;BME280;14852;51.910;8.878;2023-06-26T05:41:53;99369.09;;;37.59;28.53
26823;BME280;14852;51.910;8.878;2023-06-26T05:44:18;99373.88;;;38.09;28.13
26823;BME280;14852;51.910;8.878;2023-06-26T05:46:46;99362.22;;;38.49;27.59
26823;BME280;14852;51.910;8.878;2023-06-26T05:49:12;99365.22;;;38.98;27.21
26823;BME280;14852;51.910;8.878;2023-06-26T05:51:38;99366.19;;;39.33;26.26
26823;BME280;14852;51.910;8.878;2023-06-26T05:54:04;99356.81;;;39.64;25.87
26823;BME280;14852;51.910;8.878;2023-06-26T05:56:30;99371.50;;;39.58;25.55
26823;BME280;14852;51.910;8.878;2023-06-26T05:58:56;99364.31;;;39.88;25.72
26823;BME280;14852;51.910;8.878;2023-06-26T06:01:22;99369.22;;;39.86;25.52
26823;BME280;14852;51.910;8.878;2023-06-26T06:03:50;99370.16;;;39.61;25.05
26823;BME280;14852;51.910;8.878;2023-06-26T06:06:15;99364.22;;;39.49;25.68
26823;BME280;14852;51.910;8.878;2023-06-26T06:08:41;99365.03;;;39.54;25.15
26823;BME280;14852;51.910;8.878;2023-06-26T06:11:07;99370.00;;;39.27;25.71
26823;BME280;14852;51.910;8.878;2023-06-26T06:13:33;99371.97;;;38.96;25.58
26823;BME280;14852;51.910;8.878;2023-06-26T06:15:59;99369.00;;;38.77;25.84
26823;BME280;14852;51.910;8.878;2023-06-26T06:18:24;99372.81;;;38.56;25.73
26823;BME280;14852;51.910;8.878;2023-06-26T06:20:50;99370.38;;;38.19;26.51
26823;BME280;14852;51.910;8.878;2023-06-26T06:23:16;99373.09;;;38.19;26.34
26823;BME280;14852;51.910;8.878;2023-06-26T06:25:42;99380.13;;;38.35;26.47
26823;BME280;14852;51.910;8.878;2023-06-26T06:28:07;99373.34;;;38.22;26.29
26823;BME280;14852;51.910;8.878;2023-06-26T06:30:33;99371.56;;;37.65;27.05
26823;BME280;14852;51.910;8.878;2023-06-26T06:32:59;99370.66;;;37.45;26.82
26823;BME280;14852;51.910;8.878;2023-06-26T06:35:24;99381.59;;;37.13;27.32
26823;BME280;14852;51.910;8.878;2023-06-26T06:37:50;99382.81;;;36.90;27.41
26823;BME280;14852;51.910;8.878;2023-06-26T06:40:16;99382.56;;;36.91;27.64
26823;BME280;14852;51.910;8.878;2023-06-26T06:42:42;99386.34;;;36.95;27.71
26823;BME280;14852;51.910;8.878;2023-06-26T06:45:09;99382.00;;;36.94;27.75
26823;BME280;14852;51.910;8.878;2023-06-26T06:47:35;99383.97;;;37.04;27.59
26823;BME280;14852;51.910;8.878;2023-06-26T06:50:02;99376.91;;;36.98;27.62
26823;BME280;14852;51.910;8.878;2023-06-26T06:52:38;99376.47;;;37.16;27.62
26823;BME280;14852;51.910;8.878;2023-06-26T06:55:06;99381.19;;;37.41;28.43
26823;BME280;14852;51.910;8.878;2023-06-26T06:57:35;99374.00;;;37.62;27.00
26823;BME280;14852;51.910;8.878;2023-06-26T07:00:12;99373.81;;;37.94;26.75
26823;BME280;14852;51.910;8.878;2023-06-26T07:02:42;99380.66;;;38.32;26.26
26823;BME280;14852;51.910;8.878;2023-06-26T07:05:09;99369.81;;;38.98;25.50
26823;BME280;14852;51.910;8.878;2023-06-26T07:07:36;99379.22;;;39.41;24.78
26823;BME280;14852;51.910;8.878;2023-06-26T07:10:09;99369.66;;;39.54;24.68
26823;BME280;14852;51.910;8.878;2023-06-26T07:12:35;99379.28;;;39.90;24.20
26823;BME280;14852;51.910;8.878;2023-06-26T07:15:03;99378.47;;;40.29;23.83
26823;BME280;14852;51.910;8.878;2023-06-26T07:17:33;99394.78;;;40.73;23.92
26823;BME280;14852;51.910;8.878;2023-06-26T07:20:00;99391.03;;;40.93;23.07
26823;BME280;14852;51.910;8.878;2023-06-26T07:22:26;99390.78;;;41.18;22.74
26823;BME280;14852;51.910;8.878;2023-06-26T07:24:52;99386.50;;;41.07;22.90
26823;BME280;14852;51.910;8.878;2023-06-26T07:27:19;99386.00;;;41.05;22.95
26823;BME280;14852;51.910;8.878;2023-06-26T07:29:45;99384.91;;;40.77;22.71
26823;BME280;14852;51.910;8.878;2023-06-26T07:32:11;99395.53;;;40.39;22.99
26823;BME280;14852;51.910;8.878;2023-06-26T07:34:37;99388.53;;;40.33;23.15
26823;BME280;14852;51.910;8.878;2023-06-26T07:37:03;99389.22;;;40.05;23.41
26823;BME280;14852;51.910;8.878;2023-06-26T07:39:30;99396.72;;;38.84;24.60
26823;BME280;14852;51.910;8.878;2023-06-26T07:41:56;99410.06;;;37.62;25.83
26823;BME280;14852;51.910;8.878;2023-06-26T07:44:23;99407.88;;;37.12;26.58
26823;BME280;14852;51.910;8.878;2023-06-26T07:46:49;99409.59;;;36.86;26.95
26823;BME280;14852;51.910;8.878;2023-06-26T07:49:15;99419.53;;;36.49;27.00
26823;BME280;14852;51.910;8.878;2023-06-26T07:51:41;99422.63;;;35.82;27.93
26823;BME280;14852;51.910;8.878;2023-06-26T07:54:06;99422.47;;;35.93;27.86
26823;BME280;14852;51.910;8.878;2023-06-26T07:56:52;99418.78;;;35.78;28.35
26823;BME280;14852;51.910;8.878;2023-06-26T07:59:20;99421.47;;;35.01;29.01
26823;BME280;14852;51.910;8.878;2023-06-26T08:01:46;99421.31;;;35.68;28.30
26823;BME280;14852;51.910;8.878;2023-06-26T08:04:12;99418.75;;;35.17;28.54
26823;BME280;14852;51.910;8.878;2023-06-26T08:06:38;99428.31;;;34.58;29.58
26823;BME280;14852;51.910;8.878;2023-06-26T08:09:07;99432.63;;;33.86;30.22
26823;BME280;14852;51.910;8.878;2023-06-26T08:11:33;99433.28;;;33.29;31.08
26823;BME280;14852;51.910;8.878;2023-06-26T08:13:59;99427.69;;;33.71;30.47
26823;BME280;14852;51.910;8.878;2023-06-26T08:16:28;99439.31;;;33.60;30.51
26823;BME280;14852;51.910;8.878;2023-06-26T08:18:54;99452.19;;;33.58;30.67
26823;BME280;14852;51.910;8.878;2023-06-26T08:21:20;99448.44;;;34.22;29.75
26823;BME280;14852;51.910;8.878;2023-06-26T08:23:46;99444.69;;;34.68;29.83
26823;BME280;14852;51.910;8.878;2023-06-26T08:26:12;99453.06;;;35.17;28.88
26823;BME280;14852;51.910;8.878;2023-06-26T08:28:38;99449.34;;;35.23;29.25
26823;BME280;14852;51.910;8.878;2023-06-26T08:31:04;99450.84;;;35.14;29.59
26823;BME280;14852;51.910;8.878;2023-06-26T08:33:29;99459.69;;;34.93;29.58
26823;BME280;14852;51.910;8.878;2023-06-26T08:35:55;99466.75;;;34.65;30.33
26823;BME280;14852;51.910;8.878;2023-06-26T08:38:21;99474.56;;;34.33;30.43
26823;BME280;14852;51.910;8.878;2023-06-26T08:40:47;99477.03;;;33.83;31.29
26823;BME280;14852;51.910;8.878;2023-06-26T08:43:13;99491.81;;;33.22;32.28
26823;BME280;14852;51.910;8.878;2023-06-26T08:45:39;99501.91;;;32.73;33.46
26823;BME280;14852;51.910;8.878;2023-06-26T08:48:08;99504.41;;;32.27;33.84
26823;BME280;14852;51.910;8.878;2023-06-26T08:50:35;99498.94;;;31.97;34.80
26823;BME280;14852;51.910;8.878;2023-06-26T08:53:32;99506.38;;;32.31;34.64
26823;BME280;14852;51.910;8.878;2023-06-26T08:56:00;99501.47;;;32.58;34.00
26823;BME280;14852;51.910;8.878;2023-06-26T08:58:27;99501.78;;;32.80;34.06
26823;BME280;14852;51.910;8.878;2023-06-26T09:00:53;99501.97;;;33.08;33.99
26823;BME280;14852;51.910;8.878;2023-06-26T09:03:21;99501.75;;;33.10;34.13
26823;BME280;14852;51.910;8.878;2023-06-26T09:05:47;99499.06;;;33.10;33.84
26823;BME280;14852;51.910;8.878;2023-06-26T09:08:13;99486.41;;;33.22;33.97
26823;BME280;14852;51.910;8.878;2023-06-26T09:10:39;99487.56;;;33.15;33.88
26823;BME280;14852;51.910;8.878;2023-06-26T09:13:05;99493.66;;;32.98;34.30
26823;BME280;14852;51.910;8.878;2023-06-26T09:15:43;99510.34;;;32.89;34.48
26823;BME280;14852;51.910;8.878;2023-06-26T09:18:09;99521.16;;;32.70;34.52
26823;BME280;14852;51.910;8.878;2023-06-26T09:20:35;99522.88;;;32.53;34.79
26823;BME280;14852;51.910;8.878;2023-06-26T09:23:02;99542.16;;;32.14;34.86
26823;BME280;14852;51.910;8.878;2023-06-26T09:25:29;99534.00;;;31.65;35.75
26823;BME280;14852;51.910;8.878;2023-06-26T09:27:55;99548.25;;;31.41;36.02
26823;BME280;14852;51.910;8.878;2023-06-26T09:30:21;99547.19;;;31.24;36.57
26823;BME280;14852;51.910;8.878;2023-06-26T09:32:48;99554.72;;;31.09;36.76
26823;BME280;14852;51.910;8.878;2023-06-26T09:35:15;99554.13;;;31.00;36.69
26823;BME280;14852;51.910;8.878;2023-06-26T09:37:41;99558.69;;;31.00;36.65
26823;BME280;14852;51.910;8.878;2023-06-26T09:40:07;99567.78;;;30.99;36.51
26823;BME280;14852;51.910;8.878;2023-06-26T09:42:33;99575.69;;;31.18;36.42
26823;BME280;14852;51.910;8.878;2023-06-26T09:44:59;99555.59;;;31.52;36.18
26823;BME280;14852;51.910;8.878;2023-06-26T09:47:25;99557.59;;;31.63;36.04
26823;BME280;14852;51.910;8.878;2023-06-26T09:49:51;99556.53;;;31.64;35.73
26823;BME280;14852;51.910;8.878;2023-06-26T09:52:18;99551.94;;;31.72;36.05
26823;BME280;14852;51.910;8.878;2023-06-26T09:54:45;99557.63;;;31.82;36.03
26823;BME280;14852;51.910;8.878;2023-06-26T09:57:13;99547.09;;;31.98;35.48
26823;BME280;14852;51.910;8.878;2023-06-26T09:59:43;99546.59;;;32.26;35.68
26823;BME280;14852;51.910;8.878;2023-06-26T10:02:11;99549.28;;;32.56;35.05
26823;BME280;14852;51.910;8.878;2023-06-26T10:04:37;99548.47;;;32.74;35.07
26823;BME280;14852;51.910;8.878;2023-06-26T10:07:11;99552.06;;;32.98;34.69
26823;BME280;14852;51.910;8.878;2023-06-26T10:09:42;99553.09;;;32.97;34.46
26823;BME280;14852;51.910;8.878;2023-06-26T10:12:29;99546.66;;;32.98;34.98
26823;BME280;14852;51.910;8.878;2023-06-26T10:14:59;99550.41;;;32.97;35.05
26823;BME280;14852;51.910;8.878;2023-06-26T10:17:28;99558.50;;;33.08;34.77
26823;BME280;14852;51.910;8.878;2023-06-26T10:19:58;99561.59;;;32.82;34.83
26823;BME280;14852;51.910;8.878;2023-06-26T10:22:29;99560.06;;;32.56;35.00
26823;BME280;14852;51.910;8.878;2023-06-26T10:24:59;99559.44;;;32.24;35.29
26823;BME280;14852;51.910;8.878;2023-06-26T10:27:31;99567.63;;;32.11;35.62
26823;BME280;14852;51.910;8.878;2023-06-26T10:30:04;99572.09;;;31.99;35.93
26823;BME280;14852;51.910;8.878;2023-06-26T10:32:31;99565.03;;;32.05;35.77
26823;BME280;14852;51.910;8.878;2023-06-26T10:34:58;99553.69;;;32.21;35.67
26823;BME280;14852;51.910;8.878;2023-06-26T10:37:45;99555.88;;;32.30;35.11
26823;BME280;14852;51.910;8.878;2023-06-26T10:40:12;99558.94;;;32.46;35.00
26823;BME280;14852;51.910;8.878;2023-06-26T10:42:39;99555.53;;;32.68;35.33
26823;BME280;14852;51.910;8.878;2023-06-26T10:45:18;99553.56;;;33.05;34.78
26823;BME280;14852;51.910;8.878;2023-06-26T10:47:52;99548.44;;;33.16;34.42
26823;BME280;14852;51.910;8.878;2023-06-26T10:50:25;99544.84;;;33.22;33.94
26823;BME280;14852;51.910;8.878;2023-06-26T10:53:24;99544.28;;;33.31;34.09
26823;BME280;14852;51.910;8.878;2023-06-26T10:55:58;99542.44;;;33.55;34.04
26823;BME280;14852;51.910;8.878;2023-06-26T11:03:39;99552.84;;;33.52;34.07
26823;BME280;14852;51.910;8.878;2023-06-26T11:06:13;99563.53;;;33.17;33.97
26823;BME280;14852;51.910;8.878;2023-06-26T11:14:23;99576.38;;;32.07;35.08
26823;BME280;14852;51.910;8.878;2023-06-26T11:16:49;99582.09;;;32.10;35.25
26823;BME280;14852;51.910;8.878;2023-06-26T11:19:17;99578.63;;;32.28;35.07
26823;BME280;14852;51.910;8.878;2023-06-26T11:21:44;99573.31;;;32.40;34.89
26823;BME280;14852;51.910;8.878;2023-06-26T11:24:12;99579.47;;;32.58;34.71
26823;BME280;14852;51.910;8.878;2023-06-26T11:26:39;99577.75;;;32.82;34.16
26823;BME280;14852;51.910;8.878;2023-06-26T11:29:05;99586.00;;;32.99;34.17
26823;BME280;14852;51.910;8.878;2023-06-26T11:31:33;99585.59;;;32.84;34.13
26823;BME280;14852;51.910;8.878;2023-06-26T11:34:00;99591.72;;;32.54;34.23
26823;BME280;14852;51.910;8.878;2023-06-26T11:36:28;99594.63;;;32.41;34.77
26823;BME280;14852;51.910;8.878;2023-06-26T11:38:56;99596.16;;;32.49;34.26
26823;BME280;14852;51.910;8.878;2023-06-26T11:41:30;99594.00;;;32.39;34.05
26823;BME280;14852;51.910;8.878;2023-06-26T11:44:00;99604.09;;;32.25;33.95
26823;BME280;14852;51.910;8.878;2023-06-26T11:46:26;99601.03;;;32.22;33.92
26823;BME280;14852;51.910;8.878;2023-06-26T11:48:53;99600.00;;;32.41;33.83
26823;BME280;14852;51.910;8.878;2023-06-26T11:51:19;99604.19;;;32.67;33.87
26823;BME280;14852;51.910;8.878;2023-06-26T11:53:48;99600.13;;;32.94;33.15
26823;BME280;14852;51.910;8.878;2023-06-26T11:56:16;99598.97;;;33.02;33.12
26823;BME280;14852;51.910;8.878;2023-06-26T11:59:20;99605.91;;;33.09;32.93
26823;BME280;14852;51.910;8.878;2023-06-26T12:01:46;99623.75;;;32.92;33.14
26823;BME280;14852;51.910;8.878;2023-06-26T12:04:16;99623.84;;;32.67;32.96
26823;BME280;14852;51.910;8.878;2023-06-26T12:06:53;99625.09;;;32.35;33.49
26823;BME280;14852;51.910;8.878;2023-06-26T12:09:26;99638.75;;;32.33;33.68
26823;BME280;14852;51.910;8.878;2023-06-26T12:11:55;99616.91;;;32.60;33.21
26823;BME280;14852;51.910;8.878;2023-06-26T12:14:23;99628.53;;;32.90;32.39
26823;BME280;14852;51.910;8.878;2023-06-26T12:16:52;99626.78;;;32.84;31.83
26823;BME280;14852;51.910;8.878;2023-06-26T12:19:27;99622.16;;;32.73;32.29
26823;BME280;14852;51.910;8.878;2023-06-26T12:21:53;99621.69;;;32.58;31.82
26823;BME280;14852;51.910;8.878;2023-06-26T12:24:21;99619.25;;;32.75;31.89
26823;BME280;14852;51.910;8.878;2023-06-26T12:26:54;99620.13;;;32.87;31.76
26823;BME280;14852;51.910;8.878;2023-06-26T12:29:29;99616.53;;;33.04;31.45
26823;BME280;14852;51.910;8.878;2023-06-26T12:31:57;99615.88;;;33.09;30.95
26823;BME280;14852;51.910;8.878;2023-06-26T12:34:30;99611.88;;;33.12;30.73
26823;BME280;14852;51.910;8.878;2023-06-26T12:37:07;99622.75;;;33.05;30.66
26823;BME280;14852;51.910;8.878;2023-06-26T12:39:57;99623.00;;;33.15;30.52
26823;BME280;14852;51.910;8.878;2023-06-26T12:42:28;99610.94;;;33.06;29.93
26823;BME280;14852;51.910;8.878;2023-06-26T12:44:54;99621.44;;;32.96;29.97
26823;BME280;14852;51.910;8.878;2023-06-26T12:47:27;99622.59;;;32.88;29.87
26823;BME280;14852;51.910;8.878;2023-06-26T12:49:54;99617.28;;;32.82;29.89
26823;BME280;14852;51.910;8.878;2023-06-26T12:52:20;99617.44;;;32.87;29.51
26823;BME280;14852;51.910;8.878;2023-06-26T12:54:51;99629.31;;;32.79;29.48
26823;BME280;14852;51.910;8.878;2023-06-26T12:57:17;99620.13;;;32.68;29.24
26823;BME280;14852;51.910;8.878;2023-06-26T12:59:43;99623.25;;;32.65;29.27
26823;BME280;14852;51.910;8.878;2023-06-26T13:02:09;99620.00;;;32.63;29.19
26823;BME280;14852;51.910;8.878;2023-06-26T13:04:37;99613.78;;;32.63;28.91
26823;BME280;14852;51.910;8.878;2023-06-26T13:07:07;99620.00;;;32.63;28.99
26823;BME280;14852;51.910;8.878;2023-06-26T13:09:34;99612.59;;;32.59;29.47
26823;BME280;14852;51.910;8.878;2023-06-26T13:12:01;99617.53;;;32.62;29.85
26823;BME280;14852;51.910;8.878;2023-06-26T13:14:29;99616.25;;;32.64;29.28
26823;BME280;14852;51.910;8.878;2023-06-26T13:16:55;99617.06;;;32.65;28.98
26823;BME280;14852;51.910;8.878;2023-06-26T13:19:21;99621.75;;;32.69;29.15